createdAt,value
2022-12-23T00:02:11.232Z,6.50
2022-12-23T00:04:41.432Z,4.93
2022-12-23T00:07:08.774Z,5.55
2022-12-23T00:09:36.095Z,4.25
2022-12-23T00:12:21.141Z,5.47
2022-12-23T00:15:07.275Z,4.97
2022-12-23T00:17:34.953Z,3.50
2022-12-23T00:20:02.398Z,4.93
2022-12-23T00:22:43.729Z,5.25
2022-12-23T00:25:11.215Z,3.95
2022-12-23T00:27:41.655Z,2.45
2022-12-23T00:30:11.080Z,2.65
2022-12-23T00:32:38.392Z,2.10
2022-12-23T00:35:06.098Z,3.20
2022-12-23T00:37:33.418Z,1.83
2022-12-23T00:40:18.395Z,3.08
2022-12-23T00:42:54.473Z,1.73
2022-12-23T00:45:23.156Z,2.88
2022-12-23T00:48:08.093Z,1.83
2022-12-23T00:50:36.543Z,3.15
2022-12-23T00:53:03.880Z,2.45
2022-12-23T00:55:31.226Z,1.27
2022-12-23T00:57:58.697Z,1.98
2022-12-23T01:00:41.361Z,2.67
2022-12-23T01:03:30.126Z,1.90
2022-12-23T01:05:58.527Z,4.05
2022-12-23T01:08:26.143Z,1.25
2022-12-23T01:10:53.649Z,1.48
2022-12-23T01:13:21.037Z,0.47
2022-12-23T01:15:49.696Z,1.08
2022-12-23T01:18:17.039Z,3.15
2022-12-23T01:20:44.371Z,1.48
2022-12-23T01:23:11.668Z,2.35
2022-12-23T01:25:39.031Z,0.55
2022-12-23T01:28:06.374Z,1.23
2022-12-23T01:30:33.709Z,1.48
2022-12-23T01:33:02.522Z,0.82
2022-12-23T01:35:29.871Z,1.92
2022-12-23T01:37:57.362Z,1.15
2022-12-23T01:40:24.714Z,1.15
2022-12-23T01:42:51.101Z,1.00
2022-12-23T01:45:20.407Z,3.60
2022-12-23T01:47:50.560Z,0.85
2022-12-23T01:50:20.960Z,0.57
2022-12-23T01:52:50.204Z,2.53
2022-12-23T01:55:19.924Z,2.47
2022-12-23T01:57:47.819Z,2.67
2022-12-23T02:00:33.550Z,3.85
2022-12-23T02:03:18.418Z,0.93
2022-12-23T02:05:47.829Z,1.40
2022-12-23T02:08:33.966Z,2.78
2022-12-23T02:11:08.860Z,0.52
2022-12-23T02:14:02.460Z,0.82
2022-12-23T02:16:30.855Z,0.63
2022-12-23T02:19:02.759Z,1.02
2022-12-23T02:21:40.182Z,1.65
2022-12-23T02:24:24.435Z,1.23
2022-12-23T02:27:00.426Z,0.30
2022-12-23T02:29:46.350Z,0.88
2022-12-23T02:32:16.860Z,0.50
2022-12-23T02:34:53.818Z,0.85
2022-12-23T02:37:23.719Z,0.20
2022-12-23T02:42:18.835Z,1.27
2022-12-23T02:44:49.682Z,1.10
2022-12-23T02:47:21.271Z,1.13
2022-12-23T02:49:52.151Z,1.00
2022-12-23T02:52:21.821Z,1.13
2022-12-23T02:54:51.549Z,2.97
2022-12-23T02:57:19.742Z,1.17
2022-12-23T02:59:48.168Z,2.88
2022-12-23T03:02:15.635Z,1.05
2022-12-23T03:04:44.459Z,1.42
2022-12-23T03:07:18.798Z,2.38
2022-12-23T03:09:52.648Z,1.17
2022-12-23T03:12:23.709Z,2.05
2022-12-23T03:15:02.353Z,1.33
2022-12-23T03:17:36.726Z,2.03
2022-12-23T03:20:10.251Z,2.47
2022-12-23T03:22:39.888Z,2.00
2022-12-23T03:25:09.765Z,1.92
2022-12-23T03:30:05.796Z,3.25
2022-12-23T03:32:34.366Z,2.03
2022-12-23T03:35:02.371Z,1.55
2022-12-23T03:37:33.543Z,1.58
2022-12-23T03:40:03.896Z,0.60
2022-12-23T03:42:33.921Z,2.80
2022-12-23T03:45:37.169Z,1.17
2022-12-23T03:47:53.558Z,3.67
2022-12-23T03:50:23.852Z,2.00
2022-12-23T03:52:54.113Z,2.10
2022-12-23T03:55:23.103Z,1.13
2022-12-23T03:57:53.857Z,0.80
2022-12-23T04:00:21.218Z,1.33
2022-12-23T04:02:54.759Z,2.97
2022-12-23T04:05:26.003Z,2.17
2022-12-23T04:07:59.411Z,2.10
2022-12-23T04:10:26.987Z,1.85
2022-12-23T04:12:54.637Z,4.00
2022-12-23T04:15:22.515Z,2.35
2022-12-23T04:17:51.049Z,4.57
2022-12-23T04:20:18.630Z,3.40
2022-12-23T04:22:46.366Z,1.05
2022-12-23T04:25:15.621Z,2.25
2022-12-23T04:27:43.113Z,1.23
2022-12-23T04:30:11.466Z,2.05
2022-12-23T04:32:39.204Z,2.13
2022-12-23T04:35:07.191Z,2.90
2022-12-23T04:37:34.598Z,3.63
2022-12-23T04:40:01.970Z,1.95
2022-12-23T04:42:30.901Z,3.30
2022-12-23T04:44:58.358Z,3.80
2022-12-23T04:47:26.046Z,5.28
2022-12-23T04:49:53.424Z,4.50
2022-12-23T04:52:21.241Z,5.32
2022-12-23T04:54:48.579Z,5.22
2022-12-23T04:57:16.392Z,6.53
2022-12-23T04:59:45.115Z,5.88
2022-12-23T05:02:12.761Z,4.65
2022-12-23T05:04:40.340Z,3.50
2022-12-23T05:07:07.793Z,1.92
2022-12-23T05:09:35.157Z,3.00
2022-12-23T05:12:02.653Z,4.43
2022-12-23T05:14:30.001Z,1.75
2022-12-23T05:17:05.251Z,3.42
2022-12-23T05:19:34.677Z,4.70
2022-12-23T05:22:02.020Z,4.60
2022-12-23T05:24:29.385Z,4.20
2022-12-23T05:27:00.146Z,5.50
2022-12-23T05:29:28.135Z,5.90
2022-12-23T05:31:55.598Z,4.70
2022-12-23T05:34:24.420Z,6.55
2022-12-23T05:36:51.855Z,6.40
2022-12-23T05:39:19.202Z,4.07
2022-12-23T05:41:46.794Z,3.60
2022-12-23T05:44:14.186Z,3.88
2022-12-23T05:46:41.639Z,3.70
2022-12-23T05:49:09.080Z,2.28
2022-12-23T05:51:37.991Z,3.17
2022-12-23T05:54:05.355Z,1.67
2022-12-23T05:56:32.720Z,1.50
2022-12-23T05:59:00.090Z,2.88
2022-12-23T06:01:27.479Z,0.80
2022-12-23T06:03:55.202Z,2.03
2022-12-23T06:06:22.622Z,0.75
2022-12-23T06:08:57.473Z,0.55
2022-12-23T06:11:26.621Z,0.20
2022-12-23T06:13:54.115Z,1.48
2022-12-23T06:16:21.641Z,1.55
2022-12-23T06:18:49.124Z,1.52
2022-12-23T06:21:16.521Z,0.95
2022-12-23T06:23:43.865Z,1.50
2022-12-23T06:26:12.664Z,3.75
2022-12-23T06:28:40.067Z,2.80
2022-12-23T06:31:07.672Z,0.98
2022-12-23T06:33:35.353Z,1.38
2022-12-23T06:36:02.757Z,1.75
2022-12-23T06:38:30.219Z,1.83
2022-12-23T06:40:57.576Z,1.08
2022-12-23T06:43:26.492Z,3.22
2022-12-23T06:45:53.862Z,1.95
2022-12-23T06:48:21.248Z,0.32
2022-12-23T06:50:49.046Z,0.40
2022-12-23T06:53:16.545Z,0.50
2022-12-23T06:55:43.932Z,1.63
2022-12-23T06:58:11.399Z,1.25
2022-12-23T07:00:40.181Z,0.50
2022-12-23T07:03:08.135Z,0.75
2022-12-23T07:05:37.547Z,1.27
2022-12-23T07:08:05.423Z,2.00
2022-12-23T07:10:33.875Z,0.32
2022-12-23T07:13:02.276Z,0.88
2022-12-23T07:15:29.680Z,1.10
2022-12-23T07:17:58.389Z,1.75
2022-12-23T07:20:25.752Z,3.05
2022-12-23T07:22:55.066Z,1.38
2022-12-23T07:25:22.577Z,3.25
2022-12-23T07:27:53.521Z,5.30
2022-12-23T07:30:20.967Z,3.58
2022-12-23T07:32:48.407Z,3.00
2022-12-23T07:35:17.277Z,3.45
2022-12-23T07:37:46.001Z,3.60
2022-12-23T07:40:13.597Z,1.75
2022-12-23T07:42:46.507Z,2.47
2022-12-23T07:45:14.305Z,3.10
2022-12-23T07:47:42.061Z,1.90
2022-12-23T07:50:10.289Z,4.38
2022-12-23T07:52:39.079Z,2.50
2022-12-23T07:55:07.283Z,4.43
2022-12-23T07:57:37.801Z,4.43
2022-12-23T08:00:07.093Z,5.10
2022-12-23T08:02:35.013Z,4.37
2022-12-23T08:05:02.919Z,1.48
2022-12-23T08:07:30.627Z,1.40
2022-12-23T08:09:59.499Z,1.27
2022-12-23T08:12:27.080Z,1.52
2022-12-23T08:14:54.693Z,1.75
2022-12-23T08:17:22.190Z,2.58
2022-12-23T08:19:50.046Z,2.03
2022-12-23T08:22:17.875Z,2.08
2022-12-23T08:24:45.246Z,2.80
2022-12-23T08:27:13.980Z,1.77
2022-12-23T08:29:41.434Z,2.72
2022-12-23T08:32:09.222Z,2.15
2022-12-23T08:34:36.679Z,3.70
2022-12-23T08:37:04.556Z,5.03
2022-12-23T08:39:31.994Z,3.65
2022-12-23T08:41:59.413Z,4.25
2022-12-23T08:44:28.356Z,2.70
2022-12-23T08:46:55.977Z,4.60
2022-12-23T08:49:24.048Z,3.85
2022-12-23T08:51:51.436Z,3.05
2022-12-23T08:54:20.391Z,2.22
2022-12-23T08:56:47.995Z,2.38
2022-12-23T08:59:19.262Z,3.20
2022-12-23T09:01:48.697Z,3.35
2022-12-23T09:04:16.947Z,2.60
2022-12-23T09:06:45.388Z,2.95
2022-12-23T09:09:14.247Z,3.90
2022-12-23T09:11:41.854Z,2.50
2022-12-23T09:14:10.235Z,4.03
2022-12-23T09:16:38.055Z,2.65
2022-12-23T09:19:07.656Z,2.63
2022-12-23T09:21:35.115Z,2.58
2022-12-23T09:24:02.476Z,4.38
2022-12-23T09:26:30.612Z,3.20
2022-12-23T09:28:58.235Z,3.30
2022-12-23T09:31:32.275Z,3.00
2022-12-23T09:33:59.918Z,5.90
2022-12-23T09:36:29.845Z,2.72
2022-12-23T09:41:34.646Z,2.72
2022-12-23T09:44:10.389Z,2.00
2022-12-23T09:46:39.218Z,2.05
2022-12-23T09:49:09.549Z,1.85
2022-12-23T09:51:38.293Z,2.72
2022-12-23T09:54:13.440Z,2.88
2022-12-23T09:56:48.181Z,1.75
2022-12-23T09:59:19.743Z,2.33
2022-12-23T10:01:50.230Z,2.97
2022-12-23T10:04:38.825Z,4.13
2022-12-23T10:07:14.635Z,3.80
2022-12-23T10:09:43.800Z,3.22
2022-12-23T10:12:15.656Z,3.25
2022-12-23T10:14:43.671Z,3.58
2022-12-23T10:17:15.561Z,3.33
2022-12-23T10:19:43.863Z,3.03
2022-12-23T10:22:14.745Z,5.28
2022-12-23T10:24:43.737Z,3.97
2022-12-23T10:27:19.138Z,5.00
2022-12-23T10:29:46.852Z,5.00
2022-12-23T10:32:20.319Z,5.43
2022-12-23T10:34:50.396Z,5.38
2022-12-23T10:37:23.578Z,7.30
2022-12-23T10:39:54.341Z,5.90
2022-12-23T10:42:25.565Z,6.40
2022-12-23T10:44:59.610Z,6.10
2022-12-23T10:47:33.367Z,6.50
2022-12-23T10:50:08.960Z,6.55
2022-12-23T10:52:39.339Z,7.65
2022-12-23T10:55:07.000Z,7.13
2022-12-23T10:57:34.382Z,7.75
2022-12-23T11:00:01.763Z,8.13
2022-12-23T11:02:33.211Z,7.25
2022-12-23T11:05:00.691Z,7.20
2022-12-23T11:07:46.003Z,8.63
2022-12-23T11:10:17.305Z,7.90
2022-12-23T11:12:46.069Z,7.72
2022-12-23T11:15:26.501Z,8.30
2022-12-23T11:18:02.227Z,7.30
2022-12-23T11:20:30.696Z,8.57
2022-12-23T11:22:59.894Z,7.63
2022-12-23T11:25:32.002Z,7.95
2022-12-23T11:28:00.278Z,9.23
2022-12-23T11:30:29.516Z,9.27
2022-12-23T11:32:57.401Z,8.90
2022-12-23T11:35:27.206Z,9.35
2022-12-23T11:37:56.584Z,8.43
2022-12-23T11:40:25.344Z,8.82
2022-12-23T11:42:57.274Z,9.85
2022-12-23T11:45:28.670Z,7.85
2022-12-23T11:47:56.240Z,8.73
2022-12-23T11:50:31.327Z,10.27
2022-12-23T11:53:02.685Z,8.38
2022-12-23T11:55:33.034Z,8.48
2022-12-23T11:58:02.524Z,7.30
2022-12-23T12:00:34.798Z,8.95
2022-12-23T12:03:04.307Z,9.38
2022-12-23T12:05:33.907Z,9.35
2022-12-23T12:08:03.031Z,11.23
2022-12-23T12:10:31.562Z,8.50
2022-12-23T12:13:00.520Z,8.85
2022-12-23T12:15:34.953Z,8.77
2022-12-23T12:18:03.417Z,8.93
2022-12-23T12:20:32.133Z,8.35
2022-12-23T12:23:00.986Z,10.93
2022-12-23T12:25:39.639Z,7.32
2022-12-23T12:28:12.216Z,7.33
2022-12-23T12:30:45.524Z,7.63
2022-12-23T12:33:14.895Z,9.45
2022-12-23T12:35:44.448Z,7.38
2022-12-23T12:38:15.529Z,7.68
2022-12-23T12:40:44.537Z,8.05
2022-12-23T12:43:17.621Z,9.83
2022-12-23T12:45:49.386Z,7.75
2022-12-23T12:48:31.777Z,7.85
2022-12-23T12:51:02.231Z,8.88
2022-12-23T12:53:30.825Z,7.22
2022-12-23T12:56:04.039Z,9.77
2022-12-23T12:58:31.662Z,9.00
2022-12-23T13:01:06.261Z,9.48
2022-12-23T13:03:45.356Z,10.60
2022-12-23T13:06:20.163Z,10.55
2022-12-23T13:08:53.500Z,9.27
2022-12-23T13:11:28.121Z,11.00
2022-12-23T13:14:00.975Z,10.20
2022-12-23T13:16:36.011Z,9.77
2022-12-23T13:19:06.895Z,8.98
2022-12-23T13:21:38.926Z,8.52
2022-12-23T13:24:12.936Z,10.55
2022-12-23T13:26:41.202Z,10.23
2022-12-23T13:29:28.091Z,11.35
2022-12-23T13:31:59.334Z,9.43
2022-12-23T13:34:33.205Z,9.18
2022-12-23T13:37:06.076Z,11.70
2022-12-23T13:39:40.687Z,8.38
2022-12-23T13:42:11.292Z,8.15
2022-12-23T13:47:13.269Z,7.30
2022-12-23T13:49:49.820Z,8.48
2022-12-23T13:52:21.695Z,7.25
2022-12-23T13:54:52.484Z,8.48
2022-12-23T13:57:32.804Z,10.48
2022-12-23T14:00:05.793Z,10.70
2022-12-23T14:02:52.760Z,10.05
2022-12-23T14:05:34.500Z,9.07
2022-12-23T14:08:03.371Z,9.68
2022-12-23T14:10:31.341Z,8.70
2022-12-23T14:13:02.516Z,7.20
2022-12-23T14:15:39.769Z,8.95
2022-12-23T14:18:16.629Z,8.40
2022-12-23T14:20:47.999Z,7.43
2022-12-23T14:23:23.019Z,8.43
2022-12-23T14:25:59.712Z,12.50
2022-12-23T14:28:37.259Z,10.18
2022-12-23T14:31:06.034Z,10.68
2022-12-23T14:33:38.141Z,16.70
2022-12-23T14:36:16.071Z,12.93
2022-12-23T14:38:43.856Z,25.23
2022-12-23T14:41:37.955Z,47.13
2022-12-23T14:44:18.404Z,33.65
2022-12-23T14:46:56.368Z,126.30
2022-12-23T14:49:40.637Z,75.70
2022-12-23T14:52:27.076Z,144.25
2022-12-23T14:55:28.390Z,127.55
2022-12-23T14:57:43.699Z,27.70
2022-12-23T15:00:11.434Z,285.63
2022-12-23T15:02:41.886Z,334.92
2022-12-23T15:05:09.335Z,203.13
2022-12-23T15:07:38.028Z,186.90
2022-12-23T15:10:08.096Z,141.05
2022-12-23T15:12:36.639Z,112.22
2022-12-23T15:15:15.160Z,129.77
2022-12-23T15:17:44.740Z,145.27
2022-12-23T15:20:14.346Z,26.65
2022-12-23T15:22:42.635Z,12.77
2022-12-23T15:25:21.485Z,8.90
2022-12-23T15:27:50.045Z,8.48
2022-12-23T15:30:18.079Z,9.10
2022-12-23T15:32:46.539Z,10.95
2022-12-23T15:35:17.833Z,9.40
2022-12-23T15:37:48.974Z,8.82
2022-12-23T15:40:31.025Z,11.07
2022-12-23T15:42:58.876Z,8.57
2022-12-23T15:45:34.962Z,9.43
2022-12-23T15:48:04.974Z,8.90
2022-12-23T15:50:40.267Z,8.07
2022-12-23T15:53:09.365Z,9.88
2022-12-23T15:55:40.302Z,9.33
2022-12-23T15:58:16.383Z,13.50
2022-12-23T16:00:51.042Z,16.45
2022-12-23T16:03:23.690Z,15.85
2022-12-23T16:05:51.175Z,16.13
2022-12-23T16:08:30.285Z,35.35
2022-12-23T16:11:05.652Z,41.88
2022-12-23T16:13:33.077Z,19.70
2022-12-23T16:16:22.653Z,17.98
2022-12-23T16:18:50.533Z,31.77
2022-12-23T16:21:17.909Z,126.43
2022-12-23T16:23:49.128Z,47.40
2022-12-23T16:26:17.911Z,16.45
2022-12-23T16:28:46.291Z,28.95
2022-12-23T16:31:17.577Z,19.13
2022-12-23T16:33:45.476Z,21.58
2022-12-23T16:36:16.777Z,53.47
2022-12-23T16:38:44.503Z,88.25
2022-12-23T16:41:11.952Z,38.58
2022-12-23T16:43:43.336Z,71.00
2022-12-23T16:46:17.871Z,11.63
2022-12-23T16:48:50.025Z,29.88
2022-12-23T16:51:20.149Z,12.55
2022-12-23T16:53:47.568Z,12.25
2022-12-23T16:56:15.605Z,12.98
2022-12-23T16:58:44.732Z,48.67
2022-12-23T17:01:14.329Z,295.45
2022-12-23T17:03:41.841Z,338.33
2022-12-23T17:06:13.273Z,283.38
2022-12-23T17:08:40.699Z,358.23
2022-12-23T17:11:13.452Z,243.15
2022-12-23T17:13:40.797Z,340.02
2022-12-23T17:16:14.119Z,437.48
2022-12-23T17:18:41.926Z,319.02
2022-12-23T17:21:11.977Z,250.65
2022-12-23T17:23:39.692Z,253.13
2022-12-23T17:26:07.043Z,234.23
2022-12-23T17:28:34.378Z,253.93
2022-12-23T17:31:02.012Z,283.90
2022-12-23T17:33:32.127Z,203.05
2022-12-23T17:35:59.907Z,318.98
2022-12-23T17:38:29.075Z,340.95
2022-12-23T17:40:58.389Z,235.52
2022-12-23T17:43:28.989Z,300.33
2022-12-23T17:45:56.621Z,246.43
2022-12-23T17:51:28.192Z,196.75
2022-12-23T17:53:58.222Z,162.63
2022-12-23T17:56:26.974Z,190.57
2022-12-23T17:58:56.135Z,191.15
2022-12-23T18:01:28.925Z,134.25
2022-12-23T18:03:57.265Z,55.58
2022-12-23T18:06:25.481Z,16.23
2022-12-23T18:09:00.169Z,20.45
2022-12-23T18:11:32.073Z,19.95
2022-12-23T18:13:59.581Z,16.63
2022-12-23T18:16:26.973Z,15.32
2022-12-23T18:18:56.664Z,14.57
2022-12-23T18:21:33.988Z,25.58
2022-12-23T18:24:02.704Z,23.33
2022-12-23T18:26:30.059Z,21.80
2022-12-23T18:28:58.671Z,21.70
2022-12-23T18:31:27.274Z,18.75
2022-12-23T18:33:54.889Z,17.75
2022-12-23T18:36:23.315Z,15.88
2022-12-23T18:38:52.116Z,15.93
2022-12-23T18:41:22.850Z,13.35
2022-12-23T18:43:51.349Z,14.00
2022-12-23T18:46:20.023Z,14.10
2022-12-23T18:48:47.577Z,13.05
2022-12-23T18:51:18.099Z,15.60
2022-12-23T18:53:46.223Z,15.40
2022-12-23T18:56:14.829Z,17.23
2022-12-23T18:58:43.833Z,21.83
2022-12-23T19:01:11.978Z,23.30
2022-12-23T19:03:39.389Z,40.55
2022-12-23T19:06:07.840Z,35.20
2022-12-23T19:08:35.780Z,47.97
2022-12-23T19:11:03.247Z,16.02
2022-12-23T19:13:33.213Z,22.45
2022-12-23T19:16:02.011Z,45.22
2022-12-23T19:18:29.414Z,16.55
2022-12-23T19:20:57.897Z,17.08
2022-12-23T19:23:26.393Z,21.00
2022-12-23T19:25:56.756Z,26.50
2022-12-23T19:28:24.301Z,35.88
2022-12-23T19:30:51.700Z,21.95
2022-12-23T19:33:20.539Z,52.40
2022-12-23T19:38:58.961Z,37.63
2022-12-23T19:41:26.495Z,9.10
2022-12-23T19:43:53.855Z,8.88
2022-12-23T19:46:21.308Z,9.07
2022-12-23T19:48:51.075Z,9.30
2022-12-23T19:51:18.480Z,10.23
2022-12-23T19:53:46.173Z,11.30
2022-12-23T19:56:15.592Z,9.45
2022-12-23T19:58:44.033Z,10.20
2022-12-23T20:01:13.121Z,12.70
2022-12-23T20:03:41.777Z,14.02
2022-12-23T20:06:14.667Z,14.55
2022-12-23T20:08:43.614Z,15.10
2022-12-23T20:11:12.329Z,15.70
2022-12-23T20:13:41.048Z,16.50
2022-12-23T20:16:08.977Z,14.15
2022-12-23T20:18:37.171Z,15.38
2022-12-23T20:21:04.755Z,14.82
2022-12-23T20:23:32.276Z,9.57
2022-12-23T20:25:59.853Z,14.18
2022-12-23T20:28:27.228Z,9.48
2022-12-23T20:31:07.451Z,6.30
2022-12-23T20:33:35.414Z,2.65
2022-12-23T20:36:06.995Z,2.97
2022-12-23T20:38:35.862Z,2.25
2022-12-23T20:41:03.828Z,3.95
2022-12-23T20:43:31.201Z,3.05
2022-12-23T20:45:58.977Z,6.72
2022-12-23T20:48:33.635Z,6.40
2022-12-23T20:51:04.455Z,9.25
2022-12-23T20:53:31.836Z,8.38
2022-12-23T20:56:00.173Z,6.55
2022-12-23T20:58:44.915Z,4.15
2022-12-23T21:01:13.571Z,2.40
2022-12-23T21:03:44.605Z,3.08
2022-12-23T21:06:12.271Z,3.00
2022-12-23T21:08:40.209Z,2.10
2022-12-23T21:11:10.212Z,4.10
2022-12-23T21:13:40.227Z,2.25
2022-12-23T21:16:11.619Z,2.25
2022-12-23T21:18:42.132Z,6.47
2022-12-23T21:21:09.793Z,1.92
2022-12-23T21:23:37.699Z,4.63
2022-12-23T21:26:08.904Z,2.75
2022-12-23T21:28:36.417Z,4.70
2022-12-23T21:31:05.002Z,2.88
2022-12-23T21:33:32.431Z,2.92
2022-12-23T21:36:01.154Z,4.93
2022-12-23T21:38:31.696Z,7.25
2022-12-23T21:41:02.640Z,7.07
2022-12-23T21:43:30.788Z,7.20
2022-12-23T21:45:58.926Z,4.05
2022-12-23T21:48:26.640Z,1.55
2022-12-23T21:50:54.222Z,2.70
2022-12-23T21:53:25.732Z,9.38
2022-12-23T21:55:53.072Z,6.00
2022-12-23T21:58:20.431Z,4.93
2022-12-23T22:00:47.852Z,4.60
2022-12-23T22:03:15.208Z,4.22
2022-12-23T22:05:42.601Z,5.90
2022-12-23T22:08:10.185Z,1.92
2022-12-23T22:10:41.914Z,3.10
2022-12-23T22:13:09.635Z,4.20
2022-12-23T22:15:40.807Z,3.85
2022-12-23T22:18:10.113Z,5.85
2022-12-23T22:20:42.660Z,4.85
2022-12-23T22:23:13.518Z,5.00
2022-12-23T22:25:42.416Z,5.53
2022-12-23T22:28:09.829Z,7.13
2022-12-23T22:30:38.327Z,5.22
2022-12-23T22:33:08.585Z,5.93
2022-12-23T22:35:35.942Z,4.80
2022-12-23T22:38:03.302Z,4.25
2022-12-23T22:40:30.659Z,6.13
2022-12-23T22:42:59.364Z,7.25
2022-12-23T22:45:27.121Z,5.20
2022-12-23T22:47:54.574Z,4.18
2022-12-23T22:50:22.306Z,3.30
2022-12-23T22:52:49.646Z,4.68
2022-12-23T22:55:17.130Z,4.32
2022-12-23T22:57:44.492Z,3.13
2022-12-23T23:00:14.063Z,2.58
2022-12-23T23:02:41.397Z,2.67
2022-12-23T23:05:13.286Z,3.03
2022-12-23T23:07:41.131Z,5.22
2022-12-23T23:10:09.257Z,4.38
2022-12-23T23:12:36.608Z,5.03
2022-12-23T23:15:05.620Z,5.22
2022-12-23T23:17:34.303Z,11.83
2022-12-23T23:20:01.674Z,6.82
2022-12-23T23:22:29.086Z,2.65
2022-12-23T23:24:56.440Z,3.70
2022-12-23T23:27:23.774Z,3.58
2022-12-23T23:29:51.171Z,3.67
2022-12-23T23:32:18.567Z,3.63
2022-12-23T23:34:47.284Z,4.05
2022-12-23T23:37:15.668Z,5.10
2022-12-23T23:39:43.065Z,3.70
2022-12-23T23:42:10.667Z,3.25
2022-12-23T23:44:38.005Z,3.45
2022-12-23T23:47:05.397Z,4.70
2022-12-23T23:49:32.800Z,3.67
2022-12-23T23:52:01.526Z,4.68
2022-12-23T23:54:28.848Z,3.58
2022-12-23T23:56:56.176Z,4.00
2022-12-23T23:59:23.496Z,3.42
